createdAt,value
2023-05-09T00:00:03.665Z,30.58
2023-05-09T00:02:30.306Z,32.00
2023-05-09T00:04:56.886Z,31.02
2023-05-09T00:07:23.313Z,33.97
2023-05-09T00:09:49.717Z,32.10
2023-05-09T00:12:16.155Z,32.78
2023-05-09T00:14:45.312Z,33.50
2023-05-09T00:17:14.515Z,36.88
2023-05-09T00:19:41.810Z,36.80
2023-05-09T00:22:09.202Z,36.50
2023-05-09T00:24:35.740Z,42.90
2023-05-09T00:27:02.119Z,38.88
2023-05-09T00:29:28.544Z,31.88
2023-05-09T00:31:55.039Z,31.73
2023-05-09T00:34:21.835Z,36.28
2023-05-09T00:36:48.280Z,32.38
2023-05-09T00:39:14.713Z,38.15
2023-05-09T00:41:41.168Z,43.35
2023-05-09T00:44:07.688Z,48.10
2023-05-09T00:46:34.328Z,42.90
2023-05-09T00:49:00.800Z,44.60
2023-05-09T00:51:28.490Z,43.97
2023-05-09T00:53:55.013Z,43.58
2023-05-09T00:56:22.017Z,44.17
2023-05-09T00:58:48.791Z,40.05
2023-05-09T01:01:16.392Z,43.63
2023-05-09T01:03:43.700Z,44.42
2023-05-09T01:06:39.648Z,45.13
2023-05-09T01:09:14.775Z,43.72
2023-05-09T01:11:52.507Z,28.60
2023-05-09T01:14:37.008Z,41.95
2023-05-09T01:17:16.245Z,37.00
2023-05-09T01:20:05.796Z,33.35
2023-05-09T01:22:37.182Z,36.35
2023-05-09T01:25:31.111Z,42.38
2023-05-09T01:28:14.987Z,37.67
2023-05-09T01:30:46.756Z,47.20
2023-05-09T01:33:17.989Z,34.08
2023-05-09T01:35:49.687Z,36.92
2023-05-09T01:38:19.758Z,37.72
2023-05-09T01:40:51.820Z,38.28
2023-05-09T01:43:19.977Z,44.55
2023-05-09T01:45:48.106Z,36.47
2023-05-09T01:48:15.634Z,38.92
2023-05-09T01:50:44.181Z,34.63
2023-05-09T01:53:11.668Z,39.80
2023-05-09T01:55:41.007Z,33.15
2023-05-09T01:58:08.189Z,25.27
2023-05-09T02:00:35.068Z,41.95
2023-05-09T02:03:03.970Z,37.53
2023-05-09T02:05:32.031Z,36.53
2023-05-09T02:07:59.556Z,39.90
2023-05-09T02:10:29.227Z,38.70
2023-05-09T02:12:56.637Z,35.92
2023-05-09T02:15:24.454Z,40.08
2023-05-09T02:17:50.948Z,37.05
2023-05-09T02:20:17.665Z,37.70
2023-05-09T02:22:44.959Z,35.28
2023-05-09T02:25:16.075Z,38.47
2023-05-09T02:27:45.490Z,41.67
2023-05-09T02:30:18.654Z,36.70
2023-05-09T02:32:48.931Z,37.00
2023-05-09T02:35:17.326Z,35.03
2023-05-09T02:37:45.773Z,34.78
2023-05-09T02:40:13.370Z,35.85
2023-05-09T02:42:39.951Z,36.22
2023-05-09T02:45:07.710Z,33.42
2023-05-09T02:47:34.176Z,31.75
2023-05-09T02:50:00.622Z,25.70
2023-05-09T02:52:27.128Z,28.70
2023-05-09T02:54:53.562Z,38.63
2023-05-09T02:57:19.988Z,30.42
2023-05-09T02:59:46.474Z,23.08
2023-05-09T03:02:12.876Z,27.25
2023-05-09T03:04:39.341Z,37.17
2023-05-09T03:07:05.794Z,32.10
2023-05-09T03:09:32.253Z,38.60
2023-05-09T03:11:58.631Z,37.55
2023-05-09T03:14:25.035Z,25.17
2023-05-09T03:16:51.511Z,28.70
2023-05-09T03:19:17.922Z,24.60
2023-05-09T03:21:44.316Z,21.90
2023-05-09T03:24:10.876Z,32.35
2023-05-09T03:26:37.389Z,28.58
2023-05-09T03:29:04.442Z,33.75
2023-05-09T03:31:30.891Z,36.13
2023-05-09T03:33:57.684Z,24.33
2023-05-09T03:36:24.401Z,21.83
2023-05-09T03:38:50.805Z,22.08
2023-05-09T03:41:17.926Z,19.05
2023-05-09T03:43:44.823Z,25.58
2023-05-09T03:46:11.241Z,23.55
2023-05-09T03:48:37.625Z,27.17
2023-05-09T03:51:04.058Z,31.58
2023-05-09T03:53:30.477Z,24.13
2023-05-09T03:55:56.892Z,31.58
2023-05-09T03:58:23.295Z,26.70
2023-05-09T04:00:49.868Z,27.90
2023-05-09T04:03:16.444Z,27.02
2023-05-09T04:05:42.967Z,26.23
2023-05-09T04:08:09.420Z,27.10
2023-05-09T04:10:35.838Z,28.90
2023-05-09T04:13:02.265Z,30.90
2023-05-09T04:15:28.739Z,26.30
2023-05-09T04:17:55.217Z,25.35
2023-05-09T04:20:21.692Z,23.85
2023-05-09T04:22:48.122Z,24.70
2023-05-09T04:25:15.985Z,32.38
2023-05-09T04:27:42.693Z,32.35
2023-05-09T04:30:10.361Z,25.92
2023-05-09T04:32:36.840Z,21.45
2023-05-09T04:35:04.041Z,38.85
2023-05-09T04:37:32.582Z,36.75
2023-05-09T04:39:59.040Z,27.02
2023-05-09T04:42:25.674Z,34.53
2023-05-09T04:44:52.460Z,25.27
2023-05-09T04:47:18.874Z,22.92
2023-05-09T04:49:45.324Z,30.02
2023-05-09T04:52:11.765Z,32.03
2023-05-09T04:54:38.156Z,31.08
2023-05-09T04:57:14.198Z,29.85
2023-05-09T04:59:44.125Z,33.17
2023-05-09T05:02:10.717Z,32.58
2023-05-09T05:04:37.168Z,31.98
2023-05-09T05:07:03.629Z,27.65
2023-05-09T05:09:30.011Z,39.33
2023-05-09T05:12:01.800Z,33.08
2023-05-09T05:14:28.998Z,30.67
2023-05-09T05:16:55.486Z,26.40
2023-05-09T05:19:21.937Z,26.75
2023-05-09T05:21:48.353Z,41.70
2023-05-09T05:24:14.765Z,31.27
2023-05-09T05:26:41.245Z,27.00
2023-05-09T05:29:07.704Z,38.10
2023-05-09T05:31:34.243Z,35.22
2023-05-09T05:34:00.688Z,36.22
2023-05-09T05:36:27.099Z,31.98
2023-05-09T05:38:53.541Z,34.05
2023-05-09T05:41:19.986Z,33.78
2023-05-09T05:43:46.437Z,35.88
2023-05-09T05:46:12.931Z,34.47
2023-05-09T05:48:39.475Z,33.80
2023-05-09T05:51:06.449Z,31.45
2023-05-09T05:53:32.932Z,31.55
2023-05-09T05:55:59.639Z,30.25
2023-05-09T05:58:26.506Z,33.22
2023-05-09T06:00:53.084Z,36.35
2023-05-09T06:03:19.742Z,36.53
2023-05-09T06:05:47.435Z,32.05
2023-05-09T06:08:13.933Z,38.15
2023-05-09T06:10:40.428Z,33.63
2023-05-09T06:13:07.218Z,35.05
2023-05-09T06:15:33.702Z,33.33
2023-05-09T06:18:00.353Z,33.63
2023-05-09T06:20:27.189Z,39.97
2023-05-09T06:22:53.748Z,42.60
2023-05-09T06:25:20.197Z,31.38
2023-05-09T06:27:46.646Z,38.28
2023-05-09T06:30:24.494Z,33.95
2023-05-09T06:32:51.720Z,39.30
2023-05-09T06:35:18.338Z,27.50
2023-05-09T06:37:45.984Z,35.63
2023-05-09T06:40:14.272Z,40.75
2023-05-09T06:42:40.819Z,32.17
2023-05-09T06:45:07.729Z,35.15
2023-05-09T06:47:34.405Z,35.38
2023-05-09T06:50:00.845Z,36.40
2023-05-09T06:52:27.371Z,38.15
2023-05-09T06:54:54.188Z,26.58
2023-05-09T06:57:20.900Z,32.65
2023-05-09T06:59:47.422Z,34.90
2023-05-09T07:02:13.901Z,29.48
2023-05-09T07:04:40.410Z,26.95
2023-05-09T07:07:07.424Z,36.70
2023-05-09T07:09:33.809Z,30.48
2023-05-09T07:12:01.575Z,25.10
2023-05-09T07:14:28.218Z,21.15
2023-05-09T07:17:02.222Z,25.48
2023-05-09T07:19:36.703Z,28.83
2023-05-09T07:22:03.137Z,22.80
2023-05-09T07:24:29.593Z,19.17
2023-05-09T07:26:56.000Z,21.88
2023-05-09T07:29:22.424Z,19.45
2023-05-09T07:31:48.849Z,18.52
2023-05-09T07:34:16.832Z,15.55
2023-05-09T07:36:43.510Z,10.52
2023-05-09T07:39:10.618Z,15.38
2023-05-09T07:41:37.039Z,18.00
2023-05-09T07:44:03.420Z,11.85
2023-05-09T07:46:29.900Z,14.00
2023-05-09T07:48:56.373Z,13.40
2023-05-09T07:51:22.890Z,13.50
2023-05-09T07:53:49.358Z,14.18
2023-05-09T07:56:15.760Z,13.13
2023-05-09T07:58:42.167Z,11.80
2023-05-09T08:01:08.535Z,12.38
2023-05-09T08:03:35.087Z,8.77
2023-05-09T08:06:01.610Z,9.55
2023-05-09T08:08:28.339Z,10.30
2023-05-09T08:10:55.676Z,7.50
2023-05-09T08:13:22.454Z,9.88
2023-05-09T08:15:49.345Z,11.00
2023-05-09T08:18:16.015Z,9.85
2023-05-09T08:20:42.467Z,11.15
2023-05-09T08:23:09.156Z,8.75
2023-05-09T08:25:35.646Z,11.32
2023-05-09T08:28:02.061Z,18.67
2023-05-09T08:30:29.500Z,8.32
2023-05-09T08:32:56.441Z,7.70
2023-05-09T08:35:22.930Z,7.13
2023-05-09T08:37:49.442Z,5.80
2023-05-09T08:40:16.973Z,5.80
2023-05-09T08:42:45.787Z,7.60
2023-05-09T08:45:16.603Z,7.85
2023-05-09T08:47:43.622Z,6.57
2023-05-09T08:50:11.593Z,6.20
2023-05-09T08:52:38.589Z,7.10
2023-05-09T08:55:05.504Z,9.07
2023-05-09T08:57:35.239Z,4.68
2023-05-09T09:00:02.004Z,8.15
2023-05-09T09:02:29.498Z,4.57
2023-05-09T09:04:56.387Z,4.05
2023-05-09T09:07:23.902Z,6.40
2023-05-09T09:09:52.070Z,5.38
2023-05-09T09:12:21.015Z,6.80
2023-05-09T09:14:51.535Z,7.72
2023-05-09T09:17:23.639Z,6.05
2023-05-09T09:19:53.411Z,7.18
2023-05-09T09:22:20.799Z,5.85
2023-05-09T09:24:47.463Z,6.00
2023-05-09T09:27:13.966Z,5.55
2023-05-09T09:29:40.366Z,6.47
2023-05-09T09:32:07.894Z,9.52
2023-05-09T09:34:34.363Z,5.82
2023-05-09T09:37:00.887Z,6.90
2023-05-09T09:39:27.288Z,5.75
2023-05-09T09:41:53.800Z,5.30
2023-05-09T09:44:21.732Z,10.38
2023-05-09T09:46:52.705Z,3.95
2023-05-09T09:49:23.106Z,11.25
2023-05-09T09:51:53.642Z,14.23
2023-05-09T09:54:20.394Z,5.15
2023-05-09T09:56:54.880Z,4.18
2023-05-09T09:59:25.042Z,5.18
2023-05-09T10:01:54.461Z,5.55
2023-05-09T10:04:21.228Z,4.80
2023-05-09T10:06:54.005Z,5.03
2023-05-09T10:09:25.460Z,4.60
2023-05-09T10:11:53.153Z,8.20
2023-05-09T10:14:22.112Z,7.10
2023-05-09T10:16:49.689Z,6.07
2023-05-09T10:19:18.921Z,4.95
2023-05-09T10:21:52.766Z,4.18
2023-05-09T10:24:46.945Z,4.80
2023-05-09T10:27:14.916Z,6.10
2023-05-09T10:29:46.323Z,3.20
2023-05-09T10:32:20.690Z,6.38
2023-05-09T10:34:50.038Z,6.10
2023-05-09T10:37:17.214Z,6.55
2023-05-09T10:39:44.272Z,6.43
2023-05-09T10:42:13.428Z,5.55
2023-05-09T10:44:40.061Z,8.50
2023-05-09T10:47:07.302Z,5.85
2023-05-09T10:49:36.334Z,7.13
2023-05-09T10:52:03.719Z,7.30
2023-05-09T10:54:33.451Z,4.88
2023-05-09T10:57:00.854Z,5.45
2023-05-09T10:59:36.308Z,6.45
2023-05-09T11:02:04.238Z,6.60
2023-05-09T11:04:34.790Z,10.05
2023-05-09T11:07:01.327Z,4.65
2023-05-09T11:09:34.549Z,5.75
2023-05-09T11:12:10.883Z,6.18
2023-05-09T11:17:08.377Z,4.80
2023-05-09T11:19:39.202Z,2.95
2023-05-09T11:22:17.469Z,4.57
2023-05-09T11:24:47.866Z,4.55
2023-05-09T11:27:15.797Z,4.18
2023-05-09T11:29:55.395Z,5.75
2023-05-09T11:32:27.190Z,5.55
2023-05-09T11:35:10.102Z,4.82
2023-05-09T11:37:46.184Z,5.05
2023-05-09T11:40:14.284Z,3.75
2023-05-09T11:42:44.291Z,5.28
2023-05-09T11:45:12.431Z,3.05
2023-05-09T11:47:39.527Z,3.97
2023-05-09T11:50:10.705Z,3.92
2023-05-09T11:52:38.291Z,3.67
2023-05-09T11:55:12.233Z,5.40
2023-05-09T11:57:49.058Z,5.47
2023-05-09T12:02:44.020Z,3.90
2023-05-09T12:05:13.144Z,4.97
2023-05-09T12:07:41.165Z,4.30
2023-05-09T12:10:09.028Z,4.45
2023-05-09T12:12:37.128Z,3.53
2023-05-09T12:15:08.275Z,8.93
2023-05-09T12:17:37.555Z,5.90
2023-05-09T12:20:07.152Z,3.88
2023-05-09T12:22:34.175Z,4.32
2023-05-09T12:25:05.504Z,9.27
2023-05-09T12:27:33.069Z,8.50
2023-05-09T12:30:03.876Z,8.40
2023-05-09T12:32:32.792Z,9.30
2023-05-09T12:35:03.305Z,7.90
2023-05-09T12:37:32.543Z,7.95
2023-05-09T12:40:13.059Z,10.45
2023-05-09T12:42:43.121Z,8.77
2023-05-09T12:45:10.610Z,8.68
2023-05-09T12:47:38.984Z,12.43
2023-05-09T12:50:07.008Z,11.60
2023-05-09T12:52:34.928Z,11.00
2023-05-09T12:55:12.635Z,11.70
2023-05-09T12:57:41.063Z,8.30
2023-05-09T13:00:10.097Z,11.45
2023-05-09T13:02:38.623Z,9.52
2023-05-09T13:05:06.965Z,10.85
2023-05-09T13:07:45.164Z,8.85
2023-05-09T13:10:21.892Z,8.82
2023-05-09T13:12:49.269Z,12.18
2023-05-09T13:15:20.157Z,13.45
2023-05-09T13:17:47.961Z,15.02
2023-05-09T13:20:15.148Z,11.57
2023-05-09T13:22:41.986Z,13.10
2023-05-09T13:25:08.778Z,16.33
2023-05-09T13:27:35.744Z,15.70
2023-05-09T13:30:02.192Z,15.55
2023-05-09T13:32:28.664Z,12.73
2023-05-09T13:34:55.142Z,10.23
2023-05-09T13:37:21.729Z,11.57
2023-05-09T13:39:48.661Z,16.92
2023-05-09T13:42:15.918Z,15.90
2023-05-09T13:44:43.233Z,11.27
2023-05-09T13:47:11.100Z,11.18
2023-05-09T13:49:38.537Z,12.93
2023-05-09T13:52:05.754Z,12.20
2023-05-09T13:54:35.416Z,11.43
2023-05-09T13:57:05.342Z,11.88
2023-05-09T13:59:32.284Z,7.95
2023-05-09T14:02:00.168Z,8.07
2023-05-09T14:04:28.111Z,10.57
2023-05-09T14:06:58.203Z,7.63
2023-05-09T14:09:24.727Z,11.55
2023-05-09T14:11:52.633Z,6.75
2023-05-09T14:14:20.692Z,6.15
2023-05-09T14:16:47.436Z,7.10
2023-05-09T14:19:17.774Z,5.88
2023-05-09T14:21:47.198Z,7.75
2023-05-09T14:24:16.159Z,7.55
2023-05-09T14:26:43.060Z,8.35
2023-05-09T14:29:09.585Z,5.35
2023-05-09T14:31:36.063Z,10.10
2023-05-09T14:34:02.744Z,6.65
2023-05-09T14:36:29.161Z,6.18
2023-05-09T14:38:55.606Z,5.55
2023-05-09T14:41:22.266Z,7.55
2023-05-09T14:43:48.958Z,4.38
2023-05-09T14:46:15.554Z,8.13
2023-05-09T14:48:42.049Z,4.78
2023-05-09T14:51:08.687Z,5.32
2023-05-09T14:53:39.725Z,7.70
2023-05-09T14:56:06.890Z,5.93
2023-05-09T14:58:36.290Z,10.73
2023-05-09T15:01:04.202Z,6.25
2023-05-09T15:03:30.702Z,7.88
2023-05-09T15:05:58.621Z,8.23
2023-05-09T15:08:25.486Z,8.20
2023-05-09T15:10:51.920Z,8.88
2023-05-09T15:13:18.455Z,6.90
2023-05-09T15:15:44.952Z,9.13
2023-05-09T15:18:13.235Z,8.52
2023-05-09T15:20:39.809Z,8.77
2023-05-09T15:23:07.671Z,6.47
2023-05-09T15:25:34.553Z,7.82
2023-05-09T15:28:01.204Z,4.30
2023-05-09T15:30:27.853Z,7.75
2023-05-09T15:32:54.325Z,6.57
2023-05-09T15:35:20.843Z,5.85
2023-05-09T15:37:47.699Z,4.95
2023-05-09T15:40:14.482Z,5.68
2023-05-09T15:42:41.147Z,6.32
2023-05-09T15:45:08.160Z,5.95
2023-05-09T15:47:34.623Z,7.18
2023-05-09T15:50:01.136Z,4.80
2023-05-09T15:52:27.845Z,5.55
2023-05-09T15:54:56.003Z,8.00
2023-05-09T15:57:22.997Z,4.43
2023-05-09T15:59:49.446Z,5.43
2023-05-09T16:02:15.910Z,5.35
2023-05-09T16:04:43.890Z,5.25
2023-05-09T16:07:10.335Z,4.50
2023-05-09T16:09:37.362Z,3.45
2023-05-09T16:12:04.434Z,4.93
2023-05-09T16:14:31.171Z,5.40
2023-05-09T16:16:57.665Z,3.92
2023-05-09T16:19:24.142Z,3.80
2023-05-09T16:21:50.752Z,3.53
2023-05-09T16:24:17.411Z,3.53
2023-05-09T16:26:43.881Z,2.38
2023-05-09T16:29:11.141Z,3.38
2023-05-09T16:31:37.739Z,3.30
2023-05-09T16:34:04.324Z,2.45
2023-05-09T16:36:33.604Z,3.22
2023-05-09T16:39:00.096Z,2.88
2023-05-09T16:41:27.050Z,2.25
2023-05-09T16:43:53.715Z,2.10
2023-05-09T16:46:20.214Z,1.35
2023-05-09T16:48:46.732Z,2.67
2023-05-09T16:51:13.205Z,3.90
2023-05-09T16:53:39.653Z,2.15
2023-05-09T16:56:07.409Z,1.42
2023-05-09T16:58:35.477Z,2.33
2023-05-09T17:01:03.693Z,2.45
2023-05-09T17:03:30.211Z,2.50
2023-05-09T17:05:56.631Z,4.28
2023-05-09T17:08:23.415Z,4.30
2023-05-09T17:10:49.820Z,2.63
2023-05-09T17:13:16.331Z,1.80
2023-05-09T17:15:43.169Z,3.05
2023-05-09T17:18:09.700Z,3.55
2023-05-09T17:20:36.241Z,2.85
2023-05-09T17:23:02.727Z,2.75
2023-05-09T17:25:29.187Z,1.95
2023-05-09T17:27:55.612Z,3.20
2023-05-09T17:30:23.193Z,2.78
2023-05-09T17:32:50.193Z,4.50
2023-05-09T17:35:19.308Z,2.70
2023-05-09T17:37:46.139Z,2.97
2023-05-09T17:40:12.878Z,2.95
2023-05-09T17:42:39.376Z,3.75
2023-05-09T17:45:06.431Z,4.05
2023-05-09T17:47:32.968Z,2.83
2023-05-09T17:49:59.495Z,2.70
2023-05-09T17:52:26.005Z,1.90
2023-05-09T17:54:52.506Z,4.57
2023-05-09T17:57:18.927Z,1.73
2023-05-09T17:59:47.858Z,2.25
2023-05-09T18:02:14.589Z,1.60
2023-05-09T18:04:41.060Z,2.83
2023-05-09T18:07:08.296Z,2.65
2023-05-09T18:09:34.769Z,4.75
2023-05-09T18:12:01.228Z,2.33
2023-05-09T18:14:28.412Z,3.22
2023-05-09T18:16:54.872Z,5.50
2023-05-09T18:19:21.258Z,2.58
2023-05-09T18:21:47.696Z,5.18
2023-05-09T18:24:16.818Z,2.05
2023-05-09T18:26:43.462Z,2.42
2023-05-09T18:29:09.878Z,3.38
2023-05-09T18:31:38.812Z,3.80
2023-05-09T18:34:05.938Z,4.00
2023-05-09T18:36:32.594Z,4.30
2023-05-09T18:38:59.392Z,3.35
2023-05-09T18:41:26.369Z,3.75
2023-05-09T18:43:53.115Z,3.03
2023-05-09T18:46:22.215Z,1.83
2023-05-09T18:48:50.999Z,1.90
2023-05-09T18:51:18.965Z,1.85
2023-05-09T18:53:47.209Z,2.75
2023-05-09T18:56:14.317Z,1.80
2023-05-09T18:58:41.470Z,1.20
2023-05-09T19:01:11.358Z,3.08
2023-05-09T19:03:45.664Z,1.60
2023-05-09T19:06:14.394Z,1.33
2023-05-09T19:08:42.176Z,1.85
2023-05-09T19:11:09.826Z,7.32
2023-05-09T19:13:38.352Z,5.53
2023-05-09T19:16:06.692Z,2.58
2023-05-09T19:18:33.704Z,2.20
2023-05-09T19:21:00.425Z,2.05
2023-05-09T19:23:26.996Z,1.35
2023-05-09T19:25:53.993Z,6.72
2023-05-09T19:28:21.239Z,2.30
2023-05-09T19:30:47.689Z,1.73
2023-05-09T19:33:14.153Z,1.95
2023-05-09T19:35:44.185Z,2.90
2023-05-09T19:38:13.897Z,1.98
2023-05-09T19:40:40.955Z,1.55
2023-05-09T19:43:07.437Z,2.97
2023-05-09T19:45:33.886Z,2.20
2023-05-09T19:48:00.671Z,1.85
2023-05-09T19:50:27.203Z,2.72
2023-05-09T19:52:53.688Z,3.63
2023-05-09T19:55:20.308Z,1.92
2023-05-09T19:57:47.297Z,1.80
2023-05-09T20:00:14.384Z,3.83
2023-05-09T20:02:41.181Z,3.25
2023-05-09T20:05:08.109Z,2.40
2023-05-09T20:07:34.552Z,2.30
2023-05-09T20:10:01.044Z,2.88
2023-05-09T20:12:29.909Z,4.57
2023-05-09T20:14:56.752Z,2.92
2023-05-09T20:17:23.235Z,3.10
2023-05-09T20:19:49.696Z,3.75
2023-05-09T20:22:16.152Z,3.40
2023-05-09T20:24:42.712Z,3.70
2023-05-09T20:27:09.107Z,3.53
2023-05-09T20:29:35.518Z,3.85
2023-05-09T20:32:02.130Z,2.70
2023-05-09T20:34:28.617Z,3.50
2023-05-09T20:36:55.171Z,4.70
2023-05-09T20:39:21.791Z,5.45
2023-05-09T20:41:49.523Z,4.13
2023-05-09T20:44:17.644Z,5.55
2023-05-09T20:46:45.847Z,5.75
2023-05-09T20:49:12.915Z,5.97
2023-05-09T20:51:39.382Z,3.95
2023-05-09T20:54:05.970Z,5.30
2023-05-09T20:56:35.245Z,4.78
2023-05-09T20:59:04.308Z,5.57
2023-05-09T21:01:32.484Z,5.28
2023-05-09T21:03:59.364Z,6.05
2023-05-09T21:06:25.859Z,8.32
2023-05-09T21:08:52.412Z,7.13
2023-05-09T21:11:18.838Z,4.53
2023-05-09T21:13:45.297Z,5.75
2023-05-09T21:16:11.736Z,4.53
2023-05-09T21:18:38.156Z,5.03
2023-05-09T21:21:09.900Z,6.13
2023-05-09T21:23:36.362Z,7.05
2023-05-09T21:26:02.791Z,7.07
2023-05-09T21:28:29.880Z,5.95
2023-05-09T21:30:56.416Z,7.70
2023-05-09T21:33:22.927Z,7.45
2023-05-09T21:35:49.388Z,7.75
2023-05-09T21:38:15.835Z,10.85
2023-05-09T21:40:42.229Z,7.20
2023-05-09T21:43:08.715Z,7.70
2023-05-09T21:45:35.177Z,7.65
2023-05-09T21:48:01.738Z,8.35
2023-05-09T21:50:28.284Z,8.20
2023-05-09T21:52:56.200Z,9.63
2023-05-09T21:55:22.915Z,9.27
2023-05-09T21:57:49.378Z,7.95
2023-05-09T22:00:16.911Z,7.03
2023-05-09T22:02:43.804Z,10.48
2023-05-09T22:05:11.145Z,8.98
2023-05-09T22:07:37.582Z,10.55
2023-05-09T22:10:05.225Z,12.70
2023-05-09T22:12:31.869Z,12.88
2023-05-09T22:14:58.348Z,10.60
2023-05-09T22:17:24.954Z,10.50
2023-05-09T22:19:51.938Z,13.43
2023-05-09T22:22:18.427Z,12.93
2023-05-09T22:24:44.920Z,11.25
2023-05-09T22:27:11.517Z,11.02
2023-05-09T22:29:38.156Z,13.65
2023-05-09T22:32:07.730Z,14.52
2023-05-09T22:34:35.492Z,13.90
2023-05-09T22:37:01.920Z,14.68
2023-05-09T22:39:28.398Z,16.25
2023-05-09T22:41:54.803Z,16.48
2023-05-09T22:44:21.279Z,17.13
2023-05-09T22:46:47.848Z,21.38
2023-05-09T22:49:14.252Z,15.20
2023-05-09T22:51:40.662Z,16.70
2023-05-09T22:54:07.108Z,17.08
2023-05-09T22:56:33.644Z,19.23
2023-05-09T22:59:00.177Z,18.13
2023-05-09T23:01:27.542Z,18.38
2023-05-09T23:03:53.969Z,15.60
2023-05-09T23:06:20.559Z,15.27
2023-05-09T23:08:47.070Z,15.80
2023-05-09T23:11:13.501Z,18.75
2023-05-09T23:13:40.063Z,18.90
2023-05-09T23:16:06.533Z,15.50
2023-05-09T23:18:32.944Z,15.45
2023-05-09T23:20:59.372Z,19.90
2023-05-09T23:23:25.832Z,14.82
2023-05-09T23:25:52.251Z,20.23
2023-05-09T23:28:20.352Z,18.80
2023-05-09T23:30:46.878Z,19.52
2023-05-09T23:33:13.367Z,18.98
2023-05-09T23:35:39.812Z,24.02
2023-05-09T23:38:06.384Z,19.75
2023-05-09T23:40:33.937Z,21.70
2023-05-09T23:43:00.652Z,21.40
2023-05-09T23:45:27.626Z,21.48
2023-05-09T23:47:54.174Z,20.08
2023-05-09T23:50:20.846Z,18.98
2023-05-09T23:52:49.296Z,19.00
2023-05-09T23:55:15.730Z,23.83
2023-05-09T23:57:42.224Z,20.52
